^^
Grace C. Lehan Memorial Weather Station Historical Data
Daily Summary for July 21, 2021 Units:  Both    English   Metric
Daily Weekly Monthly Yearly
  High: Low: Average:
Temperature: 70.4 °F /  21.3 °C 53.5 °F /  11.9 °C 57.2 °F /  14 °C
Dew Point: 56 °F /  13.3 °C 50.2 °F /  10.1 °C 52.2 °F /  11.2 °C
Humidity: 91% 59% 84%
Wind Speed: 0.1mph /  0.2km/h - 0mph /  0km/h
Wind Gust: 3mph /  4.8km/h - -
Wind- - SSW
Pressure: 30.49 in /  1032.4 hPa 30.46 in /  1031.4 hPa -
Precipitation: 0.00 in /  0 mm    
 
 
Tabular Data for July 21, 2021
Time Temperature Dew Point Pressure Wind Wind Speed Wind Gust Humidity Rainfall Rate (Hourly) solar
00:00 58 °F /  14.4 °C 50.8 °F /  10.4 °C 30.47in /  1031.7hPa Calm     77% 0.00in /  0mm 0 W/m2
00:09 57.9 °F /  14.4 °C 50.7 °F /  10.4 °C 30.47in /  1031.7hPa Calm     77% 0.00in /  0mm 0 W/m2
00:14 57.8 °F /  14.3 °C 50.9 °F /  10.5 °C 30.48in /  1032.1hPa Calm     77.7% 0.00in /  0mm 0 W/m2
00:19 57.8 °F /  14.3 °C 51 °F /  10.6 °C 30.48in /  1032.1hPa Calm     78% 0.00in /  0mm 0 W/m2
00:24 57.7 °F /  14.3 °C 50.9 °F /  10.5 °C 30.48in /  1032.1hPa Calm     78% 0.00in /  0mm 0 W/m2
00:29 57.7 °F /  14.3 °C 50.9 °F /  10.5 °C 30.47in /  1031.7hPa Calm     78% 0.00in /  0mm 0 W/m2
00:34 57.6 °F /  14.2 °C 50.9 °F /  10.5 °C 30.48in /  1032.1hPa Calm     78.3% 0.00in /  0mm 0 W/m2
00:39 57.5 °F /  14.2 °C 51 °F /  10.6 °C 30.48in /  1032.1hPa Calm     78.9% 0.00in /  0mm 0 W/m2
00:44 57.4 °F /  14.1 °C 51 °F /  10.6 °C 30.48in /  1032.1hPa Calm     79.1% 0.00in /  0mm 0 W/m2
00:49 57.4 °F /  14.1 °C 51.3 °F /  10.7 °C 30.48in /  1032.1hPa Calm     80% 0.00in /  0mm 0 W/m2
00:54 57.3 °F /  14.1 °C 51.2 °F /  10.7 °C 30.48in /  1032.1hPa Calm     80% 0.00in /  0mm 0 W/m2
00:59 57.2 °F /  14 °C 51.1 °F /  10.6 °C 30.48in /  1032.1hPa Calm     80% 0.00in /  0mm 0 W/m2
01:04 57.2 °F /  14 °C 51.1 °F /  10.6 °C 30.48in /  1032.1hPa Calm     80% 0.00in /  0mm 0 W/m2
01:09 57.1 °F /  13.9 °C 51.3 °F /  10.7 °C 30.48in /  1032.1hPa Calm     80.7% 0.00in /  0mm 0 W/m2
01:14 57.1 °F /  13.9 °C 51.3 °F /  10.7 °C 30.48in /  1032.1hPa Calm     81% 0.00in /  0mm 0 W/m2
01:19 57 °F /  13.9 °C 51.3 °F /  10.7 °C 30.47in /  1031.7hPa Calm     81% 0.00in /  0mm 0 W/m2
01:24 56.9 °F /  13.8 °C 51.2 °F /  10.7 °C 30.47in /  1031.7hPa Calm     81% 0.00in /  0mm 0 W/m2
01:29 56.8 °F /  13.8 °C 51.1 °F /  10.6 °C 30.47in /  1031.7hPa Calm     81% 0.00in /  0mm 0 W/m2
01:34 56.7 °F /  13.7 °C 51.1 °F /  10.6 °C 30.47in /  1031.7hPa Calm     81.4% 0.00in /  0mm 0 W/m2
01:39 56.6 °F /  13.7 °C 51.2 °F /  10.7 °C 30.47in /  1031.7hPa Calm     82% 0.00in /  0mm 0 W/m2
01:44 56.5 °F /  13.6 °C 51.1 °F /  10.6 °C 30.47in /  1031.7hPa Calm     82.3% 0.00in /  0mm 0 W/m2
01:49 56.3 °F /  13.5 °C 51.2 °F /  10.7 °C 30.47in /  1031.7hPa Calm     82.9% 0.00in /  0mm 0 W/m2
01:54 56.2 °F /  13.4 °C 51.1 °F /  10.6 °C 30.47in /  1031.7hPa Calm     83% 0.00in /  0mm 0 W/m2
01:59 56.1 °F /  13.4 °C 51.1 °F /  10.6 °C 30.47in /  1031.7hPa Calm     83% 0.00in /  0mm 0 W/m2
02:04 56 °F /  13.3 °C 51 °F /  10.6 °C 30.47in /  1031.7hPa Calm     83.1% 0.00in /  0mm 0 W/m2
02:09 55.9 °F /  13.3 °C 51.2 °F /  10.7 °C 30.47in /  1031.7hPa Calm     84% 0.00in /  0mm 0 W/m2
02:14 55.8 °F /  13.2 °C 51.1 °F /  10.6 °C 30.47in /  1031.7hPa Calm     84% 0.00in /  0mm 0 W/m2
02:19 55.8 °F /  13.2 °C 51.3 °F /  10.7 °C 30.47in /  1031.7hPa Calm     84.9% 0.00in /  0mm 0 W/m2
02:24 55.7 °F /  13.2 °C 51.3 °F /  10.7 °C 30.47in /  1031.7hPa Calm     85% 0.00in /  0mm 0 W/m2
02:29 55.6 °F /  13.1 °C 51.2 °F /  10.7 °C 30.47in /  1031.7hPa Calm     85% 0.00in /  0mm 0 W/m2
02:34 55.5 °F /  13.1 °C 51.2 °F /  10.7 °C 30.47in /  1031.7hPa Calm     85.3% 0.00in /  0mm 0 W/m2
02:39 55.5 °F /  13.1 °C 51.3 °F /  10.7 °C 30.47in /  1031.7hPa Calm     86% 0.00in /  0mm 0 W/m2
02:44 55.4 °F /  13 °C 51.3 °F /  10.7 °C 30.47in /  1031.7hPa Calm     86% 0.00in /  0mm 0 W/m2
02:49 55.3 °F /  12.9 °C 51.2 °F /  10.7 °C 30.47in /  1031.7hPa Calm     86% 0.00in /  0mm 0 W/m2
02:54 55.2 °F /  12.9 °C 51.1 °F /  10.6 °C 30.47in /  1031.7hPa Calm     86% 0.00in /  0mm 0 W/m2
02:59 55.1 °F /  12.8 °C 51 °F /  10.6 °C 30.47in /  1031.7hPa Calm     86% 0.00in /  0mm 0 W/m2
03:04 55 °F /  12.8 °C 50.9 °F /  10.5 °C 30.47in /  1031.7hPa Calm     86% 0.00in /  0mm 0 W/m2
03:09 55 °F /  12.8 °C 51.1 °F /  10.6 °C 30.47in /  1031.7hPa Calm     86.8% 0.00in /  0mm 0 W/m2
03:14 54.8 °F /  12.7 °C 51.1 °F /  10.6 °C 30.47in /  1031.7hPa Calm     87% 0.00in /  0mm 0 W/m2
03:19 54.7 °F /  12.6 °C 51 °F /  10.6 °C 30.47in /  1031.7hPa Calm     87% 0.00in /  0mm 0 W/m2
03:24 54.6 °F /  12.6 °C 50.8 °F /  10.4 °C 30.47in /  1031.7hPa Calm     87% 0.00in /  0mm 0 W/m2
03:29 54.5 °F /  12.5 °C 50.7 °F /  10.4 °C 30.47in /  1031.7hPa Calm     87% 0.00in /  0mm 0 W/m2
03:34 54.4 °F /  12.4 °C 50.6 °F /  10.3 °C 30.47in /  1031.7hPa Calm     87% 0.00in /  0mm 0 W/m2
03:39 54.3 °F /  12.4 °C 50.6 °F /  10.3 °C 30.47in /  1031.7hPa Calm     87.3% 0.00in /  0mm 0 W/m2
03:44 54.2 °F /  12.3 °C 50.7 °F /  10.4 °C 30.47in /  1031.7hPa Calm     87.9% 0.00in /  0mm 0 W/m2
03:49 54.1 °F /  12.3 °C 50.6 °F /  10.3 °C 30.47in /  1031.7hPa Calm     88% 0.00in /  0mm 0 W/m2
03:54 54 °F /  12.2 °C 50.5 °F /  10.3 °C 30.47in /  1031.7hPa Calm     88% 0.00in /  0mm 0 W/m2
03:59 53.9 °F /  12.2 °C 50.4 °F /  10.2 °C 30.47in /  1031.7hPa Calm     88% 0.00in /  0mm 0 W/m2
04:00 53.9 °F /  12.2 °C 50.4 °F /  10.2 °C 30.47in /  1031.7hPa Calm     88% 0.00in /  0mm 0 W/m2
04:09 53.7 °F /  12.1 °C 50.2 °F /  10.1 °C 30.46in /  1031.4hPa Calm     88% 0.00in /  0mm 0 W/m2
04:14 53.7 °F /  12.1 °C 50.4 °F /  10.2 °C 30.46in /  1031.4hPa Calm     88.7% 0.00in /  0mm 0 W/m2
04:19 53.6 °F /  12 °C 50.4 °F /  10.2 °C 30.46in /  1031.4hPa Calm     89% 0.00in /  0mm 0 W/m2
04:24 53.6 °F /  12 °C 50.4 °F /  10.2 °C 30.46in /  1031.4hPa Calm     89% 0.00in /  0mm 0 W/m2
04:29 53.6 °F /  12 °C 50.6 °F /  10.3 °C 30.46in /  1031.4hPa Calm     89.6% 0.00in /  0mm 0 W/m2
04:34 53.6 °F /  12 °C 50.7 °F /  10.4 °C 30.46in /  1031.4hPa Calm     90% 0.00in /  0mm 0 W/m2
04:39 53.5 °F /  11.9 °C 50.7 °F /  10.4 °C 30.47in /  1031.7hPa Calm     90% 0.00in /  0mm 0 W/m2
04:44 53.5 °F /  11.9 °C 50.6 °F /  10.3 °C 30.47in /  1031.7hPa Calm     90% 0.00in /  0mm 0 W/m2
04:49 53.5 °F /  11.9 °C 50.6 °F /  10.3 °C 30.47in /  1031.7hPa Calm     90% 0.00in /  0mm 0 W/m2
04:54 53.5 °F /  11.9 °C 50.6 °F /  10.3 °C 30.47in /  1031.7hPa Calm     90% 0.00in /  0mm 0 W/m2
04:59 53.5 °F /  11.9 °C 50.6 °F /  10.3 °C 30.47in /  1031.7hPa Calm     90% 0.00in /  0mm 0 W/m2
05:04 53.5 °F /  11.9 °C 50.6 °F /  10.3 °C 30.47in /  1031.7hPa Calm     90% 0.00in /  0mm 0 W/m2
05:09 53.6 °F /  12 °C 50.7 °F /  10.4 °C 30.47in /  1031.7hPa Calm     90% 0.00in /  0mm 0 W/m2
05:14 53.6 °F /  12 °C 50.7 °F /  10.4 °C 30.47in /  1031.7hPa Calm     90% 0.00in /  0mm 0 W/m2
05:19 53.7 °F /  12.1 °C 51 °F /  10.6 °C 30.47in /  1031.7hPa Calm     90.7% 0.00in /  0mm 0 W/m2
05:24 53.7 °F /  12.1 °C 51.2 °F /  10.7 °C 30.47in /  1031.7hPa Calm     91% 0.00in /  0mm 0 W/m2
05:29 53.8 °F /  12.1 °C 51.3 °F /  10.7 °C 30.47in /  1031.7hPa Calm     91% 0.00in /  0mm 0 W/m2
05:34 53.9 °F /  12.2 °C 51.3 °F /  10.7 °C 30.47in /  1031.7hPa Calm     91% 0.00in /  0mm 0 W/m2
05:39 53.9 °F /  12.2 °C 51.3 °F /  10.7 °C 30.47in /  1031.7hPa Calm     91% 0.00in /  0mm 0 W/m2
05:44 54 °F /  12.2 °C 51.4 °F /  10.8 °C 30.48in /  1032.1hPa Calm     91% 0.00in /  0mm 0 W/m2
05:49 54 °F /  12.2 °C 51.5 °F /  10.8 °C 30.48in /  1032.1hPa Calm     91% 0.00in /  0mm 0 W/m2
05:54 54.1 °F /  12.3 °C 51.5 °F /  10.8 °C 30.48in /  1032.1hPa Calm     91% 0.00in /  0mm 0 W/m2
05:59 54.2 °F /  12.3 °C 51.6 °F /  10.9 °C 30.47in /  1031.7hPa Calm     91% 0.00in /  0mm 5 W/m2
06:04 54.2 °F /  12.3 °C 51.7 °F /  10.9 °C 30.48in /  1032.1hPa Calm     91% 0.00in /  0mm 5 W/m2
06:09 54.3 °F /  12.4 °C 51.7 °F /  10.9 °C 30.48in /  1032.1hPa Calm     91% 0.00in /  0mm 7 W/m2
06:14 54.4 °F /  12.4 °C 51.8 °F /  11 °C 30.48in /  1032.1hPa Calm     91% 0.00in /  0mm 7 W/m2
06:19 54.4 °F /  12.4 °C 51.9 °F /  11.1 °C 30.48in /  1032.1hPa Calm     91% 0.00in /  0mm 7 W/m2
06:24 54.5 °F /  12.5 °C 52 °F /  11.1 °C 30.48in /  1032.1hPa Calm     91% 0.00in /  0mm 9 W/m2
06:29 54.6 °F /  12.6 °C 52 °F /  11.1 °C 30.48in /  1032.1hPa Calm     91% 0.00in /  0mm 12 W/m2
06:34 54.7 °F /  12.6 °C 52.1 °F /  11.2 °C 30.48in /  1032.1hPa Calm     91% 0.00in /  0mm 14 W/m2
06:39 54.8 °F /  12.7 °C 52.2 °F /  11.2 °C 30.48in /  1032.1hPa Calm     91% 0.00in /  0mm 16 W/m2
06:44 54.8 °F /  12.7 °C 52 °F /  11.1 °C 30.49in /  1032.4hPa Calm     90.1% 0.00in /  0mm 19 W/m2
06:49 54.9 °F /  12.7 °C 52 °F /  11.1 °C 30.48in /  1032.1hPa Calm     90% 0.00in /  0mm 19 W/m2
06:54 55 °F /  12.8 °C 52.1 °F /  11.2 °C 30.49in /  1032.4hPa Calm     90% 0.00in /  0mm 19 W/m2
06:59 55.1 °F /  12.8 °C 52.4 °F /  11.3 °C 30.49in /  1032.4hPa Calm     90.7% 0.00in /  0mm 23 W/m2
07:04 55.1 °F /  12.8 °C 52.3 °F /  11.3 °C 30.49in /  1032.4hPa Calm     90% 0.00in /  0mm 28 W/m2
07:09 55.2 °F /  12.9 °C 52.4 °F /  11.3 °C 30.49in /  1032.4hPa Calm     90% 0.00in /  0mm 32 W/m2
07:14 55.3 °F /  12.9 °C 52.4 °F /  11.3 °C 30.49in /  1032.4hPa Calm     90% 0.00in /  0mm 39 W/m2
07:19 55.4 °F /  13 °C 52.6 °F /  11.4 °C 30.49in /  1032.4hPa Calm     90% 0.00in /  0mm 44 W/m2
07:24 55.6 °F /  13.1 °C 52.7 °F /  11.5 °C 30.49in /  1032.4hPa Calm     90% 0.00in /  0mm 51 W/m2
07:29 55.7 °F /  13.2 °C 52.8 °F /  11.6 °C 30.49in /  1032.4hPa Calm     90% 0.00in /  0mm 63 W/m2
07:34 55.8 °F /  13.2 °C 52.9 °F /  11.6 °C 30.49in /  1032.4hPa Calm     90% 0.00in /  0mm 84 W/m2
07:39 55.9 °F /  13.3 °C 53 °F /  11.7 °C 30.49in /  1032.4hPa Calm     90% 0.00in /  0mm 88 W/m2
07:44 56.1 °F /  13.4 °C 53.2 °F /  11.8 °C 30.49in /  1032.4hPa Calm     90% 0.00in /  0mm 90 W/m2
07:49 56.2 °F /  13.4 °C 53.3 °F /  11.8 °C 30.49in /  1032.4hPa Calm     89.9% 0.00in /  0mm 113 W/m2
07:54 56.4 °F /  13.6 °C 53.3 °F /  11.8 °C 30.49in /  1032.4hPa Calm     89.2% 0.00in /  0mm 137 W/m2
07:59 56.7 °F /  13.7 °C 53.6 °F /  12 °C 30.49in /  1032.4hPa Calm     89.3% 0.00in /  0mm 146 W/m2
08:00 56.8 °F /  13.8 °C 53.6 °F /  12 °C 30.49in /  1032.4hPa Calm     89% 0.00in /  0mm 146 W/m2
08:09 57.2 °F /  14 °C 54 °F /  12.2 °C 30.49in /  1032.4hPa Calm     89% 0.00in /  0mm 253 W/m2
08:14 57.5 °F /  14.2 °C 54.3 °F /  12.4 °C 30.49in /  1032.4hPa Calm     89% 0.00in /  0mm 253 W/m2
08:19 58 °F /  14.4 °C 54.6 °F /  12.6 °C 30.49in /  1032.4hPa Calm     88.4% 0.00in /  0mm 244 W/m2
08:24 58.4 °F /  14.7 °C 54.7 °F /  12.6 °C 30.49in /  1032.4hPa Calm     87.4% 0.00in /  0mm 225 W/m2
08:29 58.7 °F /  14.8 °C 54.5 °F /  12.5 °C 30.49in /  1032.4hPa Calm     86.1% 0.00in /  0mm 220 W/m2
08:34 59 °F /  15 °C 54.6 °F /  12.6 °C 30.49in /  1032.4hPa Calm     85.4% 0.00in /  0mm 218 W/m2
08:39 59.3 °F /  15.2 °C 54.8 °F /  12.7 °C 30.49in /  1032.4hPa Calm     85% 0.00in /  0mm 248 W/m2
08:44 59.8 °F /  15.4 °C 55.3 °F /  12.9 °C 30.49in /  1032.4hPa Calm     84.9% 0.00in /  0mm 285 W/m2
08:49 60.2 °F /  15.7 °C 55 °F /  12.8 °C 30.48in /  1032.1hPa Calm     82.8% 0.00in /  0mm 406 W/m2
08:54 60.7 °F /  15.9 °C 55.2 °F /  12.9 °C 30.48in /  1032.1hPa Calm     82% 0.00in /  0mm 580 W/m2
08:59 61.5 °F /  16.4 °C 56 °F /  13.3 °C 30.48in /  1032.1hPa Calm     82% 0.00in /  0mm 543 W/m2
09:04 62.2 °F /  16.8 °C 55.5 °F /  13.1 °C 30.48in /  1032.1hPa Calm     78.5% 0.00in /  0mm 357 W/m2
09:09 62.5 °F /  16.9 °C 55 °F /  12.8 °C 30.48in /  1032.1hPa Calm     76.2% 0.00in /  0mm 258 W/m2
09:14 62.7 °F /  17.1 °C 55.1 °F /  12.8 °C 30.48in /  1032.1hPa Calm     76.2% 0.00in /  0mm 244 W/m2
09:19 62.7 °F /  17.1 °C 54.9 °F /  12.7 °C 30.48in /  1032.1hPa Calm   1mph /  1.6km/h 75.6% 0.00in /  0mm 243 W/m2
09:24 62.7 °F /  17.1 °C 54.7 °F /  12.6 °C 30.48in /  1032.1hPa Calm   1mph /  1.6km/h 75.2% 0.00in /  0mm 301 W/m2
09:29 62.8 °F /  17.1 °C 55.1 °F /  12.8 °C 30.48in /  1032.1hPa Calm   1mph /  1.6km/h 76% 0.00in /  0mm 362 W/m2
09:34 63.2 °F /  17.3 °C 55.3 °F /  12.9 °C 30.47in /  1031.7hPa Calm   2mph /  3.2km/h 75.5% 0.00in /  0mm 427 W/m2
09:39 63.7 °F /  17.6 °C 55.8 °F /  13.2 °C 30.47in /  1031.7hPa Calm   2mph /  3.2km/h 75.4% 0.00in /  0mm 464 W/m2
09:44 64.4 °F /  18 °C 56 °F /  13.3 °C 30.47in /  1031.7hPa Calm   2mph /  3.2km/h 74.2% 0.00in /  0mm 420 W/m2
09:49 65.1 °F /  18.4 °C 55.9 °F /  13.3 °C 30.47in /  1031.7hPa Calm   2mph /  3.2km/h 72.3% 0.00in /  0mm 420 W/m2
09:54 65.4 °F /  18.6 °C 55.8 °F /  13.2 °C 30.47in /  1031.7hPa Calm   2mph /  3.2km/h 71.2% 0.00in /  0mm 287 W/m2
09:59 65.6 °F /  18.7 °C 54.5 °F /  12.5 °C 30.47in /  1031.7hPa Calm   2mph /  3.2km/h 67.3% 0.00in /  0mm 388 W/m2
10:04 65.8 °F /  18.8 °C 53.3 °F /  11.8 °C 30.46in /  1031.4hPa Calm   2mph /  3.2km/h 63.9% 0.00in /  0mm 360 W/m2
10:09 66.2 °F /  19 °C 53.4 °F /  11.9 °C 30.46in /  1031.4hPa Calm     63.5% 0.00in /  0mm 360 W/m2
10:14 66.5 °F /  19.2 °C 53.2 °F /  11.8 °C 30.46in /  1031.4hPa SSW 0.1mph /  0.2km/h 3mph /  4.8km/h 62.2% 0.00in /  0mm 366 W/m2
10:19 66.9 °F /  19.4 °C 53.2 °F /  11.8 °C 30.46in /  1031.4hPa Calm   3mph /  4.8km/h 61.5% 0.00in /  0mm 366 W/m2
10:24 67.5 °F /  19.7 °C 53.4 °F /  11.9 °C 30.46in /  1031.4hPa SSW 0.1mph /  0.2km/h 3mph /  4.8km/h 60.5% 0.00in /  0mm 575 W/m2
10:29 68.3 °F /  20.2 °C 53.9 °F /  12.2 °C 30.47in /  1031.7hPa Calm   3mph /  4.8km/h 60% 0.00in /  0mm 831 W/m2
10:34 69.4 °F /  20.8 °C 54.4 °F /  12.4 °C 30.47in /  1031.7hPa Calm   3mph /  4.8km/h 59% 0.00in /  0mm 691 W/m2
10:39 70.4 °F /  21.3 °C 55.5 °F /  13.1 °C 30.46in /  1031.4hPa Calm   1mph /  1.6km/h 59.1% 0.00in /  0mm 946 W/m2
Hartford County Weather
Compliments of Weather Underground - 2 mb